sensor_id;sensor_type;location;lat;lon;timestamp;temperature;humidity
28023;DHT22;67403;50.104;8.758;2023-03-19T00:01:26;11.60;99.90
28023;DHT22;67403;50.104;8.758;2023-03-19T00:03:53;11.60;99.90
28023;DHT22;67403;50.104;8.758;2023-03-19T00:06:22;11.60;99.90
28023;DHT22;67403;50.104;8.758;2023-03-19T00:08:50;11.60;99.90
28023;DHT22;67403;50.104;8.758;2023-03-19T00:11:17;11.60;99.90
28023;DHT22;67403;50.104;8.758;2023-03-19T00:13:43;11.60;99.90
28023;DHT22;67403;50.104;8.758;2023-03-19T00:16:10;11.60;99.90
28023;DHT22;67403;50.104;8.758;2023-03-19T00:18:37;11.60;99.90
28023;DHT22;67403;50.104;8.758;2023-03-19T00:21:05;11.60;99.90
28023;DHT22;67403;50.104;8.758;2023-03-19T00:23:33;11.50;99.90
28023;DHT22;67403;50.104;8.758;2023-03-19T00:26:01;11.40;99.90
28023;DHT22;67403;50.104;8.758;2023-03-19T00:28:28;11.50;99.90
28023;DHT22;67403;50.104;8.758;2023-03-19T00:30:55;11.50;99.90
28023;DHT22;67403;50.104;8.758;2023-03-19T00:33:23;11.50;99.90
28023;DHT22;67403;50.104;8.758;2023-03-19T00:35:51;11.40;99.90
28023;DHT22;67403;50.104;8.758;2023-03-19T00:38:18;11.40;99.90
28023;DHT22;67403;50.104;8.758;2023-03-19T00:40:46;11.40;99.90
28023;DHT22;67403;50.104;8.758;2023-03-19T00:43:14;11.40;99.90
28023;DHT22;67403;50.104;8.758;2023-03-19T00:45:41;11.40;99.90
28023;DHT22;67403;50.104;8.758;2023-03-19T00:48:08;11.40;99.90
28023;DHT22;67403;50.104;8.758;2023-03-19T00:50:35;11.40;99.90
28023;DHT22;67403;50.104;8.758;2023-03-19T00:53:02;11.40;99.90
28023;DHT22;67403;50.104;8.758;2023-03-19T00:55:29;11.30;99.90
28023;DHT22;67403;50.104;8.758;2023-03-19T00:57:57;11.40;99.90
28023;DHT22;67403;50.104;8.758;2023-03-19T01:00:24;11.30;99.90
28023;DHT22;67403;50.104;8.758;2023-03-19T01:02:51;11.30;99.90
28023;DHT22;67403;50.104;8.758;2023-03-19T01:05:18;11.30;99.90
28023;DHT22;67403;50.104;8.758;2023-03-19T01:07:45;11.20;99.90
28023;DHT22;67403;50.104;8.758;2023-03-19T01:10:12;11.20;99.90
28023;DHT22;67403;50.104;8.758;2023-03-19T01:12:39;11.10;99.90
28023;DHT22;67403;50.104;8.758;2023-03-19T01:15:08;11.00;99.90
28023;DHT22;67403;50.104;8.758;2023-03-19T01:17:35;11.00;99.90
28023;DHT22;67403;50.104;8.758;2023-03-19T01:20:03;11.00;99.90
28023;DHT22;67403;50.104;8.758;2023-03-19T01:22:35;10.90;99.90
28023;DHT22;67403;50.104;8.758;2023-03-19T01:25:02;10.90;99.90
28023;DHT22;67403;50.104;8.758;2023-03-19T01:27:29;11.00;99.90
28023;DHT22;67403;50.104;8.758;2023-03-19T01:29:56;11.00;99.90
28023;DHT22;67403;50.104;8.758;2023-03-19T01:32:24;10.90;99.90
28023;DHT22;67403;50.104;8.758;2023-03-19T01:34:51;10.90;99.90
28023;DHT22;67403;50.104;8.758;2023-03-19T01:37:18;10.90;99.90
28023;DHT22;67403;50.104;8.758;2023-03-19T01:39:45;10.80;99.90
28023;DHT22;67403;50.104;8.758;2023-03-19T01:42:13;10.90;99.90
28023;DHT22;67403;50.104;8.758;2023-03-19T01:44:40;10.80;99.90
28023;DHT22;67403;50.104;8.758;2023-03-19T01:47:14;10.80;99.90
28023;DHT22;67403;50.104;8.758;2023-03-19T01:49:46;10.80;99.90
28023;DHT22;67403;50.104;8.758;2023-03-19T01:52:14;10.80;99.90
28023;DHT22;67403;50.104;8.758;2023-03-19T01:54:42;10.80;99.90
28023;DHT22;67403;50.104;8.758;2023-03-19T01:57:12;10.80;99.90
28023;DHT22;67403;50.104;8.758;2023-03-19T01:59:43;10.90;99.90
28023;DHT22;67403;50.104;8.758;2023-03-19T02:02:15;10.80;99.90
28023;DHT22;67403;50.104;8.758;2023-03-19T02:04:46;10.90;99.90
28023;DHT22;67403;50.104;8.758;2023-03-19T02:07:16;10.90;99.90
28023;DHT22;67403;50.104;8.758;2023-03-19T02:09:44;11.00;99.90
28023;DHT22;67403;50.104;8.758;2023-03-19T02:12:12;11.00;99.90
28023;DHT22;67403;50.104;8.758;2023-03-19T02:14:39;11.10;99.90
28023;DHT22;67403;50.104;8.758;2023-03-19T02:17:06;11.10;99.90
28023;DHT22;67403;50.104;8.758;2023-03-19T02:19:39;11.10;99.90
28023;DHT22;67403;50.104;8.758;2023-03-19T02:22:10;11.10;99.90
28023;DHT22;67403;50.104;8.758;2023-03-19T02:24:43;11.10;99.90
28023;DHT22;67403;50.104;8.758;2023-03-19T02:27:12;11.00;99.90
28023;DHT22;67403;50.104;8.758;2023-03-19T02:29:39;11.00;99.90
28023;DHT22;67403;50.104;8.758;2023-03-19T02:32:06;11.00;99.90
28023;DHT22;67403;50.104;8.758;2023-03-19T02:34:35;11.00;99.90
28023;DHT22;67403;50.104;8.758;2023-03-19T02:37:08;10.90;99.90
28023;DHT22;67403;50.104;8.758;2023-03-19T02:39:40;10.80;99.90
28023;DHT22;67403;50.104;8.758;2023-03-19T02:42:11;10.70;99.90
28023;DHT22;67403;50.104;8.758;2023-03-19T02:44:39;10.70;99.90
28023;DHT22;67403;50.104;8.758;2023-03-19T02:47:06;10.60;99.90
28023;DHT22;67403;50.104;8.758;2023-03-19T02:49:33;10.50;99.90
28023;DHT22;67403;50.104;8.758;2023-03-19T02:52:00;10.40;99.90
28023;DHT22;67403;50.104;8.758;2023-03-19T02:54:27;10.20;99.90
28023;DHT22;67403;50.104;8.758;2023-03-19T02:56:54;10.30;99.90
28023;DHT22;67403;50.104;8.758;2023-03-19T02:59:23;10.30;99.90
28023;DHT22;67403;50.104;8.758;2023-03-19T03:01:50;10.30;99.90
28023;DHT22;67403;50.104;8.758;2023-03-19T03:04:17;10.20;99.90
28023;DHT22;67403;50.104;8.758;2023-03-19T03:06:44;10.20;99.90
28023;DHT22;67403;50.104;8.758;2023-03-19T03:09:12;10.20;99.90
28023;DHT22;67403;50.104;8.758;2023-03-19T03:11:39;10.20;99.90
28023;DHT22;67403;50.104;8.758;2023-03-19T03:14:07;10.20;99.90
28023;DHT22;67403;50.104;8.758;2023-03-19T03:16:35;10.10;99.90
28023;DHT22;67403;50.104;8.758;2023-03-19T03:19:03;10.10;99.90
28023;DHT22;67403;50.104;8.758;2023-03-19T03:21:30;10.10;99.90
28023;DHT22;67403;50.104;8.758;2023-03-19T03:23:58;10.10;99.90
28023;DHT22;67403;50.104;8.758;2023-03-19T03:26:25;10.00;99.90
28023;DHT22;67403;50.104;8.758;2023-03-19T03:28:52;10.00;99.90
28023;DHT22;67403;50.104;8.758;2023-03-19T03:31:19;10.00;99.90
28023;DHT22;67403;50.104;8.758;2023-03-19T03:33:48;9.90;99.90
28023;DHT22;67403;50.104;8.758;2023-03-19T03:36:15;9.90;99.90
28023;DHT22;67403;50.104;8.758;2023-03-19T03:38:42;9.80;99.90
28023;DHT22;67403;50.104;8.758;2023-03-19T03:41:09;9.80;99.90
28023;DHT22;67403;50.104;8.758;2023-03-19T03:43:36;9.70;99.90
28023;DHT22;67403;50.104;8.758;2023-03-19T03:46:04;9.60;99.90
28023;DHT22;67403;50.104;8.758;2023-03-19T03:48:32;9.50;99.90
28023;DHT22;67403;50.104;8.758;2023-03-19T03:51:00;9.50;99.90
28023;DHT22;67403;50.104;8.758;2023-03-19T03:53:27;9.50;99.90
28023;DHT22;67403;50.104;8.758;2023-03-19T03:55:54;9.50;99.90
28023;DHT22;67403;50.104;8.758;2023-03-19T03:58:21;9.50;99.90
28023;DHT22;67403;50.104;8.758;2023-03-19T04:00:48;9.60;99.90
28023;DHT22;67403;50.104;8.758;2023-03-19T04:03:16;9.60;99.90
28023;DHT22;67403;50.104;8.758;2023-03-19T04:05:43;9.60;99.90
28023;DHT22;67403;50.104;8.758;2023-03-19T04:08:12;9.60;99.90
28023;DHT22;67403;50.104;8.758;2023-03-19T04:10:40;9.50;99.90
28023;DHT22;67403;50.104;8.758;2023-03-19T04:13:08;9.50;99.90
28023;DHT22;67403;50.104;8.758;2023-03-19T04:15:35;9.50;99.90
28023;DHT22;67403;50.104;8.758;2023-03-19T04:18:02;9.60;99.90
28023;DHT22;67403;50.104;8.758;2023-03-19T04:20:29;9.50;99.90
28023;DHT22;67403;50.104;8.758;2023-03-19T04:22:56;9.50;99.90
28023;DHT22;67403;50.104;8.758;2023-03-19T04:25:25;9.50;99.90
28023;DHT22;67403;50.104;8.758;2023-03-19T04:27:51;9.50;99.90
28023;DHT22;67403;50.104;8.758;2023-03-19T04:30:19;9.40;99.90
28023;DHT22;67403;50.104;8.758;2023-03-19T04:32:45;9.40;99.90
28023;DHT22;67403;50.104;8.758;2023-03-19T04:35:12;9.30;99.90
28023;DHT22;67403;50.104;8.758;2023-03-19T04:37:40;9.30;99.90
28023;DHT22;67403;50.104;8.758;2023-03-19T04:40:09;9.30;99.90
28023;DHT22;67403;50.104;8.758;2023-03-19T04:43:02;9.30;99.90
28023;DHT22;67403;50.104;8.758;2023-03-19T04:45:30;9.30;99.90
28023;DHT22;67403;50.104;8.758;2023-03-19T04:47:57;9.30;99.90
28023;DHT22;67403;50.104;8.758;2023-03-19T04:50:24;9.30;99.90
28023;DHT22;67403;50.104;8.758;2023-03-19T04:52:50;9.30;99.90
28023;DHT22;67403;50.104;8.758;2023-03-19T04:55:17;9.30;99.90
28023;DHT22;67403;50.104;8.758;2023-03-19T04:57:44;9.30;99.90
28023;DHT22;67403;50.104;8.758;2023-03-19T05:00:13;9.40;99.90
28023;DHT22;67403;50.104;8.758;2023-03-19T05:02:40;9.40;99.90
28023;DHT22;67403;50.104;8.758;2023-03-19T05:05:08;9.40;99.90
28023;DHT22;67403;50.104;8.758;2023-03-19T05:07:35;9.40;99.90
28023;DHT22;67403;50.104;8.758;2023-03-19T05:10:03;9.40;99.90
28023;DHT22;67403;50.104;8.758;2023-03-19T05:12:30;9.50;99.90
28023;DHT22;67403;50.104;8.758;2023-03-19T05:14:57;9.50;99.90
28023;DHT22;67403;50.104;8.758;2023-03-19T05:17:26;9.60;99.90
28023;DHT22;67403;50.104;8.758;2023-03-19T05:19:53;9.60;99.90
28023;DHT22;67403;50.104;8.758;2023-03-19T05:22:21;9.60;99.90
28023;DHT22;67403;50.104;8.758;2023-03-19T05:24:48;9.50;99.90
28023;DHT22;67403;50.104;8.758;2023-03-19T05:27:15;9.50;99.90
28023;DHT22;67403;50.104;8.758;2023-03-19T05:29:43;9.40;99.90
28023;DHT22;67403;50.104;8.758;2023-03-19T05:32:12;9.50;99.90
28023;DHT22;67403;50.104;8.758;2023-03-19T05:34:40;9.40;99.90
28023;DHT22;67403;50.104;8.758;2023-03-19T05:37:07;9.40;99.90
28023;DHT22;67403;50.104;8.758;2023-03-19T05:39:34;9.40;99.90
28023;DHT22;67403;50.104;8.758;2023-03-19T05:42:01;9.40;99.90
28023;DHT22;67403;50.104;8.758;2023-03-19T05:44:28;9.40;99.90
28023;DHT22;67403;50.104;8.758;2023-03-19T05:46:55;9.30;99.90
28023;DHT22;67403;50.104;8.758;2023-03-19T05:49:22;9.30;99.90
28023;DHT22;67403;50.104;8.758;2023-03-19T05:51:51;9.30;99.90
28023;DHT22;67403;50.104;8.758;2023-03-19T05:54:17;9.30;99.90
28023;DHT22;67403;50.104;8.758;2023-03-19T05:56:44;9.30;99.90
28023;DHT22;67403;50.104;8.758;2023-03-19T05:59:11;9.30;99.90
28023;DHT22;67403;50.104;8.758;2023-03-19T06:01:38;9.30;99.90
28023;DHT22;67403;50.104;8.758;2023-03-19T06:04:05;9.40;99.90
28023;DHT22;67403;50.104;8.758;2023-03-19T06:06:32;9.40;99.90
28023;DHT22;67403;50.104;8.758;2023-03-19T06:09:01;9.50;99.90
28023;DHT22;67403;50.104;8.758;2023-03-19T06:11:28;9.50;99.90
28023;DHT22;67403;50.104;8.758;2023-03-19T06:13:56;9.50;99.90
28023;DHT22;67403;50.104;8.758;2023-03-19T06:16:23;9.60;99.90
28023;DHT22;67403;50.104;8.758;2023-03-19T06:18:50;9.60;99.90
28023;DHT22;67403;50.104;8.758;2023-03-19T06:21:17;9.70;99.90
28023;DHT22;67403;50.104;8.758;2023-03-19T06:23:44;9.80;99.90
28023;DHT22;67403;50.104;8.758;2023-03-19T06:26:12;9.80;99.90
28023;DHT22;67403;50.104;8.758;2023-03-19T06:28:39;9.80;99.90
28023;DHT22;67403;50.104;8.758;2023-03-19T06:31:06;9.90;99.90
28023;DHT22;67403;50.104;8.758;2023-03-19T06:33:33;9.90;99.90
28023;DHT22;67403;50.104;8.758;2023-03-19T06:36:01;10.00;99.90
28023;DHT22;67403;50.104;8.758;2023-03-19T06:38:28;10.10;99.90
28023;DHT22;67403;50.104;8.758;2023-03-19T06:40:55;10.10;99.90
28023;DHT22;67403;50.104;8.758;2023-03-19T06:43:23;10.20;99.90
28023;DHT22;67403;50.104;8.758;2023-03-19T06:45:50;10.30;99.90
28023;DHT22;67403;50.104;8.758;2023-03-19T06:48:17;10.40;99.90
28023;DHT22;67403;50.104;8.758;2023-03-19T06:50:44;10.40;99.90
28023;DHT22;67403;50.104;8.758;2023-03-19T06:53:12;10.50;99.90
28023;DHT22;67403;50.104;8.758;2023-03-19T06:55:39;10.60;99.90
28023;DHT22;67403;50.104;8.758;2023-03-19T06:58:06;10.70;99.90
28023;DHT22;67403;50.104;8.758;2023-03-19T07:00:34;10.80;99.90
28023;DHT22;67403;50.104;8.758;2023-03-19T07:03:01;10.80;99.90
28023;DHT22;67403;50.104;8.758;2023-03-19T07:05:28;11.00;99.90
28023;DHT22;67403;50.104;8.758;2023-03-19T07:07:55;11.00;99.90
28023;DHT22;67403;50.104;8.758;2023-03-19T07:10:22;11.10;99.90
28023;DHT22;67403;50.104;8.758;2023-03-19T07:12:49;11.30;99.90
28023;DHT22;67403;50.104;8.758;2023-03-19T07:15:16;11.30;99.90
28023;DHT22;67403;50.104;8.758;2023-03-19T07:17:46;11.50;99.90
28023;DHT22;67403;50.104;8.758;2023-03-19T07:20:14;11.50;99.90
28023;DHT22;67403;50.104;8.758;2023-03-19T07:22:41;11.60;99.90
28023;DHT22;67403;50.104;8.758;2023-03-19T07:25:08;11.80;99.90
28023;DHT22;67403;50.104;8.758;2023-03-19T07:27:35;11.80;99.90
28023;DHT22;67403;50.104;8.758;2023-03-19T07:30:02;11.80;99.90
28023;DHT22;67403;50.104;8.758;2023-03-19T07:32:29;11.80;99.90
28023;DHT22;67403;50.104;8.758;2023-03-19T07:34:58;11.90;99.90
28023;DHT22;67403;50.104;8.758;2023-03-19T07:37:25;12.10;99.90
28023;DHT22;67403;50.104;8.758;2023-03-19T07:39:52;12.20;99.90
28023;DHT22;67403;50.104;8.758;2023-03-19T07:42:18;12.40;99.90
28023;DHT22;67403;50.104;8.758;2023-03-19T07:44:45;12.50;99.90
28023;DHT22;67403;50.104;8.758;2023-03-19T07:47:12;12.70;99.90
28023;DHT22;67403;50.104;8.758;2023-03-19T07:49:39;12.80;99.90
28023;DHT22;67403;50.104;8.758;2023-03-19T07:52:07;12.90;99.90
28023;DHT22;67403;50.104;8.758;2023-03-19T07:54:34;13.00;99.90
28023;DHT22;67403;50.104;8.758;2023-03-19T07:57:01;13.00;99.90
28023;DHT22;67403;50.104;8.758;2023-03-19T07:59:28;13.10;99.90
28023;DHT22;67403;50.104;8.758;2023-03-19T08:01:55;13.10;99.90
28023;DHT22;67403;50.104;8.758;2023-03-19T08:04:22;13.20;99.90
28023;DHT22;67403;50.104;8.758;2023-03-19T08:06:49;13.40;99.90
28023;DHT22;67403;50.104;8.758;2023-03-19T08:09:17;13.30;99.90
28023;DHT22;67403;50.104;8.758;2023-03-19T08:11:44;13.50;99.90
28023;DHT22;67403;50.104;8.758;2023-03-19T08:14:11;13.60;99.90
28023;DHT22;67403;50.104;8.758;2023-03-19T08:16:37;13.80;99.90
28023;DHT22;67403;50.104;8.758;2023-03-19T08:19:04;13.60;99.90
28023;DHT22;67403;50.104;8.758;2023-03-19T08:21:31;13.80;99.90
28023;DHT22;67403;50.104;8.758;2023-03-19T08:23:58;13.60;99.90
28023;DHT22;67403;50.104;8.758;2023-03-19T08:26:30;13.70;99.90
28023;DHT22;67403;50.104;8.758;2023-03-19T08:28:57;13.80;99.90
28023;DHT22;67403;50.104;8.758;2023-03-19T08:31:24;13.70;99.90
28023;DHT22;67403;50.104;8.758;2023-03-19T08:33:51;13.70;99.90
28023;DHT22;67403;50.104;8.758;2023-03-19T08:36:18;13.80;99.90
28023;DHT22;67403;50.104;8.758;2023-03-19T08:38:45;13.90;99.90
28023;DHT22;67403;50.104;8.758;2023-03-19T08:41:12;14.10;99.90
28023;DHT22;67403;50.104;8.758;2023-03-19T08:43:40;14.20;99.90
28023;DHT22;67403;50.104;8.758;2023-03-19T08:46:07;14.20;99.90
28023;DHT22;67403;50.104;8.758;2023-03-19T08:48:34;14.10;99.90
28023;DHT22;67403;50.104;8.758;2023-03-19T08:51:02;14.30;99.90
28023;DHT22;67403;50.104;8.758;2023-03-19T08:53:30;14.40;99.90
28023;DHT22;67403;50.104;8.758;2023-03-19T08:56:01;14.40;99.90
28023;DHT22;67403;50.104;8.758;2023-03-19T08:58:29;14.60;99.90
28023;DHT22;67403;50.104;8.758;2023-03-19T09:01:02;14.70;99.90
28023;DHT22;67403;50.104;8.758;2023-03-19T09:03:29;14.70;99.90
28023;DHT22;67403;50.104;8.758;2023-03-19T09:05:57;14.90;99.90
28023;DHT22;67403;50.104;8.758;2023-03-19T09:08:25;15.20;99.90
28023;DHT22;67403;50.104;8.758;2023-03-19T09:10:52;15.30;99.90
28023;DHT22;67403;50.104;8.758;2023-03-19T09:13:19;15.40;99.90
28023;DHT22;67403;50.104;8.758;2023-03-19T09:15:46;15.40;99.90
28023;DHT22;67403;50.104;8.758;2023-03-19T09:18:14;15.20;99.90
28023;DHT22;67403;50.104;8.758;2023-03-19T09:20:42;14.80;99.90
28023;DHT22;67403;50.104;8.758;2023-03-19T09:23:09;14.50;99.90
28023;DHT22;67403;50.104;8.758;2023-03-19T09:25:36;14.60;99.90
28023;DHT22;67403;50.104;8.758;2023-03-19T09:28:03;14.90;99.90
28023;DHT22;67403;50.104;8.758;2023-03-19T09:30:30;15.00;99.90
28023;DHT22;67403;50.104;8.758;2023-03-19T09:32:57;15.10;99.90
28023;DHT22;67403;50.104;8.758;2023-03-19T09:35:25;15.30;99.90
28023;DHT22;67403;50.104;8.758;2023-03-19T09:37:55;15.50;99.90
28023;DHT22;67403;50.104;8.758;2023-03-19T09:40:25;15.70;99.90
28023;DHT22;67403;50.104;8.758;2023-03-19T09:42:56;15.70;99.90
28023;DHT22;67403;50.104;8.758;2023-03-19T09:45:26;15.90;99.90
28023;DHT22;67403;50.104;8.758;2023-03-19T09:47:58;16.00;99.90
28023;DHT22;67403;50.104;8.758;2023-03-19T09:50:31;16.20;99.90
28023;DHT22;67403;50.104;8.758;2023-03-19T09:53:04;16.00;99.90
28023;DHT22;67403;50.104;8.758;2023-03-19T09:55:39;15.70;99.90
28023;DHT22;67403;50.104;8.758;2023-03-19T09:58:12;15.70;99.90
28023;DHT22;67403;50.104;8.758;2023-03-19T10:00:41;15.80;99.90
28023;DHT22;67403;50.104;8.758;2023-03-19T10:03:28;16.20;99.90
28023;DHT22;67403;50.104;8.758;2023-03-19T10:06:07;16.60;99.90
28023;DHT22;67403;50.104;8.758;2023-03-19T10:08:52;16.80;99.90
28023;DHT22;67403;50.104;8.758;2023-03-19T10:11:38;16.70;99.90
28023;DHT22;67403;50.104;8.758;2023-03-19T10:14:33;17.10;99.90
28023;DHT22;67403;50.104;8.758;2023-03-19T10:17:09;17.10;99.90
28023;DHT22;67403;50.104;8.758;2023-03-19T10:19:42;16.90;99.90
28023;DHT22;67403;50.104;8.758;2023-03-19T10:22:15;16.80;99.90
28023;DHT22;67403;50.104;8.758;2023-03-19T10:24:45;16.80;99.90
28023;DHT22;67403;50.104;8.758;2023-03-19T10:27:15;16.60;99.90
28023;DHT22;67403;50.104;8.758;2023-03-19T10:29:42;16.30;99.90
28023;DHT22;67403;50.104;8.758;2023-03-19T10:32:16;16.10;99.90
28023;DHT22;67403;50.104;8.758;2023-03-19T10:34:46;15.90;99.90
28023;DHT22;67403;50.104;8.758;2023-03-19T10:37:18;15.90;99.90
28023;DHT22;67403;50.104;8.758;2023-03-19T10:39:46;16.10;99.90
28023;DHT22;67403;50.104;8.758;2023-03-19T10:42:30;16.20;99.90
28023;DHT22;67403;50.104;8.758;2023-03-19T10:45:04;16.30;99.90
28023;DHT22;67403;50.104;8.758;2023-03-19T10:47:35;16.40;99.90
28023;DHT22;67403;50.104;8.758;2023-03-19T10:50:04;16.60;99.90
28023;DHT22;67403;50.104;8.758;2023-03-19T10:52:34;16.90;99.90
28023;DHT22;67403;50.104;8.758;2023-03-19T10:55:12;17.30;99.90
28023;DHT22;67403;50.104;8.758;2023-03-19T10:57:40;17.80;99.90
28023;DHT22;67403;50.104;8.758;2023-03-19T11:00:15;18.00;99.90
28023;DHT22;67403;50.104;8.758;2023-03-19T11:02:46;18.10;99.90
28023;DHT22;67403;50.104;8.758;2023-03-19T11:05:24;17.80;99.90
28023;DHT22;67403;50.104;8.758;2023-03-19T11:07:56;17.30;99.90
28023;DHT22;67403;50.104;8.758;2023-03-19T11:10:26;17.40;99.90
28023;DHT22;67403;50.104;8.758;2023-03-19T11:12:56;17.20;99.90
28023;DHT22;67403;50.104;8.758;2023-03-19T11:15:27;17.00;99.90
28023;DHT22;67403;50.104;8.758;2023-03-19T11:17:57;17.20;99.90
28023;DHT22;67403;50.104;8.758;2023-03-19T11:20:28;17.20;99.90
28023;DHT22;67403;50.104;8.758;2023-03-19T11:22:57;17.50;99.90
28023;DHT22;67403;50.104;8.758;2023-03-19T11:25:29;17.70;99.90
28023;DHT22;67403;50.104;8.758;2023-03-19T11:27:57;17.90;99.90
28023;DHT22;67403;50.104;8.758;2023-03-19T11:30:30;18.10;99.90
28023;DHT22;67403;50.104;8.758;2023-03-19T11:33:10;18.70;99.90
28023;DHT22;67403;50.104;8.758;2023-03-19T11:35:41;18.00;99.90
28023;DHT22;67403;50.104;8.758;2023-03-19T11:38:16;17.60;99.90
28023;DHT22;67403;50.104;8.758;2023-03-19T11:40:46;18.00;99.90
28023;DHT22;67403;50.104;8.758;2023-03-19T11:43:39;17.60;99.90
28023;DHT22;67403;50.104;8.758;2023-03-19T11:46:23;17.20;99.90
28023;DHT22;67403;50.104;8.758;2023-03-19T11:49:06;17.50;99.90
28023;DHT22;67403;50.104;8.758;2023-03-19T11:51:37;19.40;99.90
28023;DHT22;67403;50.104;8.758;2023-03-19T11:54:13;20.20;99.90
28023;DHT22;67403;50.104;8.758;2023-03-19T11:56:45;20.40;99.90
28023;DHT22;67403;50.104;8.758;2023-03-19T11:59:37;20.50;99.90
28023;DHT22;67403;50.104;8.758;2023-03-19T12:02:24;20.60;99.90
28023;DHT22;67403;50.104;8.758;2023-03-19T12:05:12;19.50;99.90
28023;DHT22;67403;50.104;8.758;2023-03-19T12:07:48;19.30;99.90
28023;DHT22;67403;50.104;8.758;2023-03-19T12:10:33;20.10;99.90
28023;DHT22;67403;50.104;8.758;2023-03-19T12:13:15;20.60;99.90
28023;DHT22;67403;50.104;8.758;2023-03-19T12:15:51;20.50;99.90
28023;DHT22;67403;50.104;8.758;2023-03-19T12:18:37;22.10;97.70
28023;DHT22;67403;50.104;8.758;2023-03-19T12:21:11;22.50;94.30
28023;DHT22;67403;50.104;8.758;2023-03-19T12:23:48;23.10;92.90
28023;DHT22;67403;50.104;8.758;2023-03-19T12:26:27;22.80;92.00
28023;DHT22;67403;50.104;8.758;2023-03-19T12:29:05;21.80;92.20
28023;DHT22;67403;50.104;8.758;2023-03-19T12:32:10;20.10;94.70
28023;DHT22;67403;50.104;8.758;2023-03-19T12:34:40;19.30;97.20
28023;DHT22;67403;50.104;8.758;2023-03-19T12:37:18;18.60;98.60
28023;DHT22;67403;50.104;8.758;2023-03-19T12:39:56;18.30;99.10
28023;DHT22;67403;50.104;8.758;2023-03-19T12:42:31;17.90;99.90
28023;DHT22;67403;50.104;8.758;2023-03-19T12:45:02;17.60;99.90
28023;DHT22;67403;50.104;8.758;2023-03-19T12:47:33;17.80;99.90
28023;DHT22;67403;50.104;8.758;2023-03-19T12:50:06;17.80;99.90
28023;DHT22;67403;50.104;8.758;2023-03-19T12:52:37;18.40;99.90
28023;DHT22;67403;50.104;8.758;2023-03-19T12:55:13;19.00;99.40
28023;DHT22;67403;50.104;8.758;2023-03-19T12:57:46;19.20;98.80
28023;DHT22;67403;50.104;8.758;2023-03-19T13:00:19;18.90;99.80
28023;DHT22;67403;50.104;8.758;2023-03-19T13:02:52;18.80;99.90
28023;DHT22;67403;50.104;8.758;2023-03-19T13:05:28;19.00;99.90
28023;DHT22;67403;50.104;8.758;2023-03-19T13:08:01;18.60;99.90
28023;DHT22;67403;50.104;8.758;2023-03-19T13:10:30;18.30;99.90
28023;DHT22;67403;50.104;8.758;2023-03-19T13:12:59;18.10;99.90
28023;DHT22;67403;50.104;8.758;2023-03-19T13:15:34;18.00;99.90
28023;DHT22;67403;50.104;8.758;2023-03-19T13:18:11;17.80;99.90
28023;DHT22;67403;50.104;8.758;2023-03-19T13:20:51;17.80;99.90
28023;DHT22;67403;50.104;8.758;2023-03-19T13:23:25;17.80;99.90
28023;DHT22;67403;50.104;8.758;2023-03-19T13:25:55;17.60;99.90
28023;DHT22;67403;50.104;8.758;2023-03-19T13:28:27;17.30;99.90
28023;DHT22;67403;50.104;8.758;2023-03-19T13:30:59;17.40;99.90
28023;DHT22;67403;50.104;8.758;2023-03-19T13:33:26;18.10;99.90
28023;DHT22;67403;50.104;8.758;2023-03-19T13:35:55;18.50;99.90
28023;DHT22;67403;50.104;8.758;2023-03-19T13:38:25;17.80;99.90
28023;DHT22;67403;50.104;8.758;2023-03-19T13:40:53;17.20;99.90
28023;DHT22;67403;50.104;8.758;2023-03-19T13:43:40;16.90;99.90
28023;DHT22;67403;50.104;8.758;2023-03-19T13:46:34;16.50;99.90
28023;DHT22;67403;50.104;8.758;2023-03-19T13:49:21;16.10;99.90
28023;DHT22;67403;50.104;8.758;2023-03-19T13:51:50;15.60;99.90
28023;DHT22;67403;50.104;8.758;2023-03-19T13:54:22;15.30;99.90
28023;DHT22;67403;50.104;8.758;2023-03-19T13:57:18;15.10;99.90
28023;DHT22;67403;50.104;8.758;2023-03-19T13:59:48;15.00;99.90
28023;DHT22;67403;50.104;8.758;2023-03-19T14:02:45;15.10;99.90
28023;DHT22;67403;50.104;8.758;2023-03-19T14:05:17;15.70;99.90
28023;DHT22;67403;50.104;8.758;2023-03-19T14:08:16;16.30;99.90
28023;DHT22;67403;50.104;8.758;2023-03-19T14:10:46;16.30;99.90
28023;DHT22;67403;50.104;8.758;2023-03-19T14:13:20;16.00;99.90
28023;DHT22;67403;50.104;8.758;2023-03-19T14:15:50;15.80;99.90
28023;DHT22;67403;50.104;8.758;2023-03-19T14:18:19;15.70;99.90
28023;DHT22;67403;50.104;8.758;2023-03-19T14:20:50;15.50;99.90
28023;DHT22;67403;50.104;8.758;2023-03-19T14:23:23;15.50;99.90
28023;DHT22;67403;50.104;8.758;2023-03-19T14:25:54;15.40;99.90
28023;DHT22;67403;50.104;8.758;2023-03-19T14:28:26;15.40;99.90
28023;DHT22;67403;50.104;8.758;2023-03-19T14:30:57;15.30;99.90
28023;DHT22;67403;50.104;8.758;2023-03-19T14:33:31;15.10;99.90
28023;DHT22;67403;50.104;8.758;2023-03-19T14:36:03;14.90;99.90
28023;DHT22;67403;50.104;8.758;2023-03-19T14:38:58;14.90;99.90
28023;DHT22;67403;50.104;8.758;2023-03-19T14:42:00;14.70;99.90
28023;DHT22;67403;50.104;8.758;2023-03-19T14:47:50;14.20;99.90
28023;DHT22;67403;50.104;8.758;2023-03-19T14:50:29;14.00;99.90
28023;DHT22;67403;50.104;8.758;2023-03-19T14:53:01;13.70;99.90
28023;DHT22;67403;50.104;8.758;2023-03-19T14:55:35;13.60;99.90
28023;DHT22;67403;50.104;8.758;2023-03-19T14:58:03;13.60;99.90
28023;DHT22;67403;50.104;8.758;2023-03-19T15:00:39;13.50;99.90
28023;DHT22;67403;50.104;8.758;2023-03-19T15:03:18;13.50;99.90
28023;DHT22;67403;50.104;8.758;2023-03-19T15:05:46;13.50;99.90
28023;DHT22;67403;50.104;8.758;2023-03-19T15:08:18;13.50;99.90
28023;DHT22;67403;50.104;8.758;2023-03-19T15:10:55;13.50;99.90
28023;DHT22;67403;50.104;8.758;2023-03-19T15:13:32;13.50;99.90
28023;DHT22;67403;50.104;8.758;2023-03-19T15:16:14;13.60;99.90
28023;DHT22;67403;50.104;8.758;2023-03-19T15:18:46;13.60;99.90
28023;DHT22;67403;50.104;8.758;2023-03-19T15:21:14;13.60;99.90
28023;DHT22;67403;50.104;8.758;2023-03-19T15:23:44;13.60;99.90
28023;DHT22;67403;50.104;8.758;2023-03-19T15:26:11;13.70;99.90
28023;DHT22;67403;50.104;8.758;2023-03-19T15:28:45;13.90;99.90
28023;DHT22;67403;50.104;8.758;2023-03-19T15:31:14;14.10;99.90
28023;DHT22;67403;50.104;8.758;2023-03-19T15:33:41;14.00;99.90
28023;DHT22;67403;50.104;8.758;2023-03-19T15:36:13;14.30;99.90
28023;DHT22;67403;50.104;8.758;2023-03-19T15:38:45;14.40;99.90
28023;DHT22;67403;50.104;8.758;2023-03-19T15:41:13;14.30;99.90
28023;DHT22;67403;50.104;8.758;2023-03-19T15:43:41;14.40;99.90
28023;DHT22;67403;50.104;8.758;2023-03-19T15:46:10;14.40;99.90
28023;DHT22;67403;50.104;8.758;2023-03-19T15:48:40;14.30;99.90
28023;DHT22;67403;50.104;8.758;2023-03-19T15:51:10;14.50;99.90
28023;DHT22;67403;50.104;8.758;2023-03-19T15:53:39;14.70;99.90
28023;DHT22;67403;50.104;8.758;2023-03-19T15:56:06;14.90;99.90
28023;DHT22;67403;50.104;8.758;2023-03-19T15:58:37;15.20;99.90